Time;durP1;ratioP1;P1;durP2;ratioP2;P2;SDS_P1;SDS_P2;PMS_P1;PMS_P2;Temp;Humidity;BMP_temperature;BMP_pressure;BME280_temperature;BME280_humidity;BME280_pressure;Samples;Min_cycle;Max_cycle;Signal;HPM_P1;HPM_P2
2021/12/31 00:04:10;;;;;;;9.67;5.60;;;;;;;10.51;100.00;100250.63;3506858;82;98998;-92
2021/12/31 00:09:12;;;;;;;11.05;5.33;;;;;;;10.51;100.00;100250.05;3493161;82;99557;-91
2021/12/31 00:14:15;;;;;;;9.17;4.90;;;;;;;10.51;100.00;100255.55;3498863;82;25854;-91
2021/12/31 00:19:16;;;;;;;12.63;5.47;;;;;;;10.57;100.00;100240.87;3494601;82;99553;-90
2021/12/31 00:24:17;;;;;;;9.70;5.23;;;;;;;10.64;100.00;100238.94;3496575;82;99065;-90
2021/12/31 00:29:18;;;;;;;11.65;5.35;;;;;;;10.71;100.00;100228.00;3483427;82;99060;-90
2021/12/31 00:34:18;;;;;;;10.77;5.90;;;;;;;10.82;100.00;100231.62;3504163;82;99483;-89
2021/12/31 00:39:21;;;;;;;10.53;6.10;;;;;;;10.88;100.00;100236.97;3498133;82;99360;-90
2021/12/31 00:44:25;;;;;;;11.93;7.20;;;;;;;10.90;100.00;100224.20;3510780;82;25888;-91
2021/12/31 00:49:25;;;;;;;14.70;8.50;;;;;;;10.92;100.00;100237.79;3497476;81;99473;-90
2021/12/31 00:54:26;;;;;;;12.57;6.73;;;;;;;10.93;100.00;100228.92;3509396;81;99096;-90
2021/12/31 00:59:26;;;;;;;13.97;7.50;;;;;;;10.93;100.00;100236.61;3479484;82;99160;-90
2021/12/31 01:04:30;;;;;;;14.03;7.77;;;;;;;10.92;100.00;100241.92;3513351;82;99160;-91
2021/12/31 01:09:33;;;;;;;11.97;7.28;;;;;;;10.94;100.00;100256.08;3481393;82;99414;-90
2021/12/31 01:14:39;;;;;;;12.67;8.10;;;;;;;10.99;100.00;100267.31;3515982;82;29664;-90
2021/12/31 01:19:50;;;;;;;12.65;7.40;;;;;;;10.99;100.00;100256.30;3506934;81;98902;-90
2021/12/31 01:24:47;;;;;;;14.87;7.92;;;;;;;11.03;100.00;100260.67;3507202;82;99004;-90
2021/12/31 01:29:48;;;;;;;13.53;7.37;;;;;;;11.05;100.00;100263.83;3476380;82;99713;-89
2021/12/31 01:34:49;;;;;;;11.80;6.77;;;;;;;11.05;100.00;100276.80;3501532;82;99246;-89
2021/12/31 01:39:50;;;;;;;14.60;8.23;;;;;;;11.02;100.00;100283.86;3500102;82;99355;-90
2021/12/31 01:45:01;;;;;;;13.27;8.57;;;;;;;11.02;100.00;100276.97;3489061;83;99542;-91
2021/12/31 01:49:59;;;;;;;11.77;6.83;;;;;;;11.04;100.00;100277.40;3489938;82;99364;-91
2021/12/31 01:55:01;;;;;;;11.33;6.47;;;;;;;11.05;100.00;100296.07;3501447;83;99091;-89
2021/12/31 02:00:04;;;;;;;12.70;6.97;;;;;;;11.04;100.00;100295.30;3489397;82;99057;-90
2021/12/31 02:05:06;;;;;;;13.30;7.20;;;;;;;11.06;100.00;100292.17;3498826;83;99238;-89
2021/12/31 02:10:09;;;;;;;11.88;6.85;;;;;;;11.07;100.00;100282.73;3497004;83;99411;-90
2021/12/31 02:15:10;;;;;;;12.98;6.92;;;;;;;11.05;100.00;100282.30;3493049;83;99550;-90
2021/12/31 02:20:12;;;;;;;12.33;7.13;;;;;;;11.05;100.00;100277.59;3490856;83;99234;-90
2021/12/31 02:25:13;;;;;;;11.50;6.42;;;;;;;11.05;100.00;100265.20;3503377;82;99092;-90
2021/12/31 02:30:14;;;;;;;9.77;5.63;;;;;;;11.05;100.00;100268.53;3433645;84;98991;-90
2021/12/31 02:35:17;;;;;;;11.63;6.60;;;;;;;11.05;100.00;100261.64;3444271;84;99149;-90
2021/12/31 02:40:20;;;;;;;11.53;7.03;;;;;;;11.09;100.00;100270.16;3441157;84;99302;-91
2021/12/31 02:45:28;;;;;;;12.55;6.87;;;;;;;11.14;100.00;100263.48;3445249;84;99175;-92
2021/12/31 02:50:33;;;;;;;10.82;6.53;;;;;;;11.15;100.00;100265.06;3437084;84;99226;-91
2021/12/31 02:55:30;;;;;;;12.50;7.67;;;;;;;11.10;100.00;100264.04;3442163;84;99169;-92
2021/12/31 03:00:34;;;;;;;11.50;7.25;;;;;;;11.10;100.00;100267.59;3435610;84;99185;-92
2021/12/31 03:05:36;;;;;;;12.00;6.97;;;;;;;11.07;100.00;100257.94;3447929;84;99308;-91
2021/12/31 03:10:38;;;;;;;11.43;7.13;;;;;;;11.03;100.00;100259.30;3445627;84;99279;-90
2021/12/31 03:15:39;;;;;;;11.43;6.75;;;;;;;10.98;100.00;100269.87;3449845;84;99727;-92
2021/12/31 03:20:43;;;;;;;11.90;7.30;;;;;;;10.96;100.00;100266.11;3440736;84;99537;-91
2021/12/31 03:25:43;;;;;;;12.20;7.28;;;;;;;10.95;100.00;100263.77;3451159;82;98124;-91
2021/12/31 03:30:44;;;;;;;10.17;6.20;;;;;;;10.94;100.00;100264.34;3496638;81;99075;-91
2021/12/31 03:35:45;;;;;;;10.13;5.97;;;;;;;10.93;100.00;100264.72;3500528;82;99260;-91
2021/12/31 03:40:47;;;;;;;8.97;5.13;;;;;;;10.94;100.00;100267.09;3488305;82;99280;-92
2021/12/31 03:45:50;;;;;;;8.27;4.80;;;;;;;10.95;100.00;100264.54;3506099;82;99111;-90
2021/12/31 03:50:51;;;;;;;9.30;4.72;;;;;;;10.95;100.00;100254.13;3489779;82;99130;-92
2021/12/31 03:55:52;;;;;;;7.80;4.23;;;;;;;10.99;100.00;100252.17;3491857;82;25986;-91
2021/12/31 04:00:53;;;;;;;6.53;3.70;;;;;;;11.05;100.00;100245.13;3497384;82;98950;-92
2021/12/31 04:05:54;;;;;;;7.10;3.90;;;;;;;11.09;100.00;100240.44;3501263;82;99293;-89
2021/12/31 04:10:54;;;;;;;7.30;3.73;;;;;;;11.15;100.00;100243.02;3492707;82;99102;-90
2021/12/31 04:15:55;;;;;;;6.80;3.67;;;;;;;11.20;100.00;100245.41;3489466;82;99043;-89
2021/12/31 04:20:57;;;;;;;6.10;3.27;;;;;;;11.23;100.00;100242.67;3498341;82;99377;-90
2021/12/31 04:25:59;;;;;;;6.07;3.17;;;;;;;11.23;100.00;100246.03;3506988;82;25985;-90
2021/12/31 04:31:00;;;;;;;6.28;3.27;;;;;;;11.28;100.00;100242.31;3570536;79;99001;-90
2021/12/31 04:36:01;;;;;;;6.17;3.30;;;;;;;11.32;100.00;100235.44;3558967;79;99011;-89
2021/12/31 04:41:03;;;;;;;6.73;3.73;;;;;;;11.34;100.00;100231.73;3575356;81;99082;-90
2021/12/31 04:46:04;;;;;;;6.00;3.30;;;;;;;11.33;100.00;100228.77;3599320;79;99446;-91
2021/12/31 04:51:05;;;;;;;7.00;3.87;;;;;;;11.34;100.00;100231.13;3594636;80;98982;-90
2021/12/31 04:56:05;;;;;;;6.07;3.40;;;;;;;11.32;100.00;100234.86;3498406;82;26338;-90
2021/12/31 05:01:06;;;;;;;6.57;3.80;;;;;;;11.31;100.00;100242.12;3490719;82;99064;-90
2021/12/31 05:06:07;;;;;;;7.37;3.92;;;;;;;11.33;100.00;100231.53;3488571;82;99404;-91
2021/12/31 05:11:08;;;;;;;6.12;3.60;;;;;;;11.35;100.00;100231.31;3489442;82;99402;-90
2021/12/31 05:16:09;;;;;;;5.37;3.10;;;;;;;11.35;100.00;100232.69;3485288;82;98316;-91
2021/12/31 05:21:10;;;;;;;7.73;3.43;;;;;;;11.40;100.00;100230.17;3483179;82;99105;-89
2021/12/31 05:26:10;;;;;;;6.60;4.10;;;;;;;11.40;100.00;100230.17;3493664;82;33272;-91
2021/12/31 05:31:11;;;;;;;7.37;4.50;;;;;;;11.41;100.00;100237.27;3505962;82;99035;-89
2021/12/31 05:36:13;;;;;;;7.53;4.40;;;;;;;11.44;100.00;100242.02;3507869;82;99308;-90
2021/12/31 05:41:14;;;;;;;6.37;4.03;;;;;;;11.46;100.00;100233.53;3506407;82;98954;-90
2021/12/31 05:46:16;;;;;;;5.17;3.00;;;;;;;11.44;100.00;100237.27;3512054;82;99003;-90
2021/12/31 05:51:17;;;;;;;5.40;3.30;;;;;;;11.46;100.00;100232.16;3451291;83;99409;-90
2021/12/31 05:56:18;;;;;;;5.40;3.10;;;;;;;11.50;100.00;100240.46;3522171;82;33230;-90
2021/12/31 06:01:19;;;;;;;6.23;2.90;;;;;;;11.50;100.00;100239.86;3510116;82;99246;-90
2021/12/31 06:06:20;;;;;;;5.50;3.20;;;;;;;11.38;100.00;100219.53;3501388;81;98818;-90
2021/12/31 06:11:21;;;;;;;5.40;2.70;;;;;;;11.48;100.00;100239.47;3503935;80;99129;-90
2021/12/31 06:16:22;;;;;;;2.30;1.67;;;;;;;11.49;100.00;100246.55;3524451;82;99420;-91
2021/12/31 06:21:23;;;;;;;2.27;1.40;;;;;;;11.49;100.00;100249.30;3513029;82;99041;-91
2021/12/31 06:26:24;;;;;;;3.00;1.60;;;;;;;11.52;100.00;100250.50;3520786;82;26584;-92
2021/12/31 06:31:26;;;;;;;2.63;1.67;;;;;;;11.54;100.00;100257.78;3481092;83;98919;-90
2021/12/31 06:36:27;;;;;;;4.87;2.77;;;;;;;11.52;100.00;100262.33;3593923;81;98860;-93
2021/12/31 06:41:28;;;;;;;5.33;2.40;;;;;;;11.51;100.00;100259.95;3576619;79;99143;-89
2021/12/31 06:46:29;;;;;;;4.27;2.57;;;;;;;11.51;100.00;100262.09;3589805;81;99411;-90
2021/12/31 06:51:29;;;;;;;3.93;2.17;;;;;;;11.56;100.00;100273.36;3590273;80;99136;-90
2021/12/31 06:56:30;;;;;;;5.10;2.70;;;;;;;11.58;100.00;100265.48;3590903;79;32116;-90
2021/12/31 07:01:31;;;;;;;7.73;3.60;;;;;;;11.54;100.00;100264.67;3583562;80;99022;-90
2021/12/31 07:06:32;;;;;;;7.80;4.30;;;;;;;11.49;100.00;100268.59;3597900;79;98999;-89
2021/12/31 07:11:33;;;;;;;8.73;3.97;;;;;;;11.48;100.00;100271.73;3583981;81;99091;-90
2021/12/31 07:16:34;;;;;;;8.98;4.42;;;;;;;11.43;100.00;100281.17;3598438;81;99199;-90
2021/12/31 07:21:35;;;;;;;14.30;5.90;;;;;;;11.38;100.00;100277.97;3588386;80;99012;-91
2021/12/31 07:26:36;;;;;;;10.97;4.93;;;;;;;11.36;100.00;100288.60;3587534;81;34636;-90
2021/12/31 07:31:37;;;;;;;8.00;4.00;;;;;;;11.30;100.00;100288.19;3592451;79;99097;-90
2021/12/31 07:36:38;;;;;;;8.70;4.13;;;;;;;11.32;100.00;100290.54;3592638;79;99153;-90
2021/12/31 07:41:40;;;;;;;9.73;4.63;;;;;;;11.36;100.00;100301.00;3581173;79;99071;-90
2021/12/31 07:46:43;;;;;;;8.17;4.50;;;;;;;11.37;100.00;100298.44;3581803;79;99243;-90
2021/12/31 07:51:43;;;;;;;9.83;5.70;;;;;;;11.36;100.00;100303.75;3580077;79;99433;-91
2021/12/31 07:56:44;;;;;;;9.57;5.60;;;;;;;11.36;100.00;100300.42;3587345;81;25813;-90
2021/12/31 08:01:45;;;;;;;11.63;5.90;;;;;;;11.33;100.00;100299.03;3585881;80;99235;-91
2021/12/31 08:06:45;;;;;;;10.03;6.37;;;;;;;11.33;100.00;100301.79;3590105;79;99467;-92
2021/12/31 08:11:46;;;;;;;10.63;6.27;;;;;;;11.32;100.00;100300.19;3582003;80;99373;-90
2021/12/31 08:16:48;;;;;;;12.00;6.87;;;;;;;11.27;100.00;100290.33;3584883;79;99202;-87
2021/12/31 08:21:48;;;;;;;12.07;6.87;;;;;;;11.27;100.00;100285.39;3582965;80;99691;-87
2021/12/31 08:26:49;;;;;;;13.25;8.13;;;;;;;11.25;100.00;100287.75;3587544;80;99860;-86
2021/12/31 08:31:50;;;;;;;14.33;9.20;;;;;;;11.22;100.00;100289.30;3579060;80;98910;-87
2021/12/31 08:36:51;;;;;;;12.33;7.73;;;;;;;11.23;100.00;100285.98;3591777;80;99084;-87
2021/12/31 08:41:52;;;;;;;13.57;7.17;;;;;;;11.24;100.00;100293.06;3576412;81;99319;-89
2021/12/31 08:46:54;;;;;;;14.20;7.43;;;;;;;11.23;100.00;100297.00;3578242;81;99132;-86
2021/12/31 08:51:54;;;;;;;13.00;6.70;;;;;;;11.24;100.00;100307.61;3580387;80;99700;-89
2021/12/31 08:56:55;;;;;;;11.27;6.83;;;;;;;11.26;100.00;100323.77;3587239;80;101318;-88
2021/12/31 09:01:56;;;;;;;12.17;6.70;;;;;;;11.30;100.00;100311.61;3575374;79;99143;-87
2021/12/31 09:06:57;;;;;;;13.38;6.85;;;;;;;11.32;100.00;100318.09;3582421;80;99443;-89
2021/12/31 09:11:58;;;;;;;11.20;6.45;;;;;;;11.34;100.00;100317.91;3581732;79;99526;-89
2021/12/31 09:17:00;;;;;;;10.90;6.30;;;;;;;11.34;100.00;100321.27;3586409;80;99664;-93
2021/12/31 09:22:04;;;;;;;12.00;6.87;;;;;;;11.35;100.00;100318.11;3577757;79;98890;-90
2021/12/31 09:27:05;;;;;;;10.50;6.23;;;;;;;11.35;100.00;100312.59;3582776;80;99310;-90
2021/12/31 09:32:06;;;;;;;15.53;8.83;;;;;;;11.34;100.00;100304.73;3582768;81;98975;-88
2021/12/31 09:37:07;;;;;;;10.90;6.20;;;;;;;11.34;100.00;100302.75;3586073;81;99107;-90
2021/12/31 09:42:09;;;;;;;9.80;5.77;;;;;;;11.35;100.00;100297.44;3583777;80;99258;-91
2021/12/31 09:47:13;;;;;;;10.13;6.57;;;;;;;11.36;100.00;100303.75;3588287;79;98990;-88
2021/12/31 09:52:15;;;;;;;13.27;6.47;;;;;;;11.38;100.00;100298.06;3587109;79;99224;-88
2021/12/31 09:57:19;;;;;;;10.40;5.50;;;;;;;11.38;100.00;100298.64;3590070;79;99155;-90
2021/12/31 10:02:33;;;;;;;8.35;4.95;;;;;;;11.39;100.00;100293.36;3580981;79;98784;-89
2021/12/31 10:07:34;;;;;;;11.20;5.62;;;;;;;11.41;100.00;100289.62;3579993;81;99273;-91
2021/12/31 10:12:59;;;;;;;10.20;5.23;;;;;;;11.43;100.00;100290.01;3578480;79;99048;-92
2021/12/31 10:18:12;;;;;;;10.00;6.05;;;;;;;11.41;100.00;100290.42;3590326;79;98457;-90
2021/12/31 10:23:16;;;;;;;12.73;5.67;;;;;;;11.43;100.00;100283.12;3581517;81;99277;-90
2021/12/31 10:28:18;;;;;;;10.17;5.60;;;;;;;11.42;100.00;100284.30;3583352;81;99132;-91
2021/12/31 10:33:25;;;;;;;10.75;4.97;;;;;;;11.43;100.00;100285.88;3593092;79;99138;-90
2021/12/31 10:38:40;;;;;;;10.70;5.12;;;;;;;11.46;100.00;100286.50;3578441;80;99339;-90
2021/12/31 10:43:37;;;;;;;9.08;5.53;;;;;;;11.47;100.00;100277.84;3587803;79;99268;-91
2021/12/31 10:48:50;;;;;;;12.00;6.20;;;;;;;11.50;100.00;100279.05;3577920;80;99061;-91
2021/12/31 10:53:54;;;;;;;10.80;6.90;;;;;;;11.54;100.00;100268.80;3590328;81;99731;-91
2021/12/31 10:58:59;;;;;;;9.28;5.97;;;;;;;11.58;100.00;100274.55;3577828;79;99634;-89
2021/12/31 11:03:59;;;;;;;12.00;5.92;;;;;;;11.62;100.00;100264.34;3534531;81;99051;-89
2021/12/31 11:09:05;;;;;;;8.00;4.70;;;;;;;11.64;100.00;100263.96;3581202;79;99427;-92
2021/12/31 11:14:04;;;;;;;11.20;5.33;;;;;;;11.66;100.00;100265.16;3565646;80;34886;-90
2021/12/31 11:19:06;;;;;;;9.38;5.10;;;;;;;11.68;100.00;100253.75;3584611;79;99326;-88
2021/12/31 11:24:30;;;;;;;9.38;5.35;;;;;;;11.71;100.00;100254.33;3579326;80;99008;-90
2021/12/31 11:29:38;;;;;;;9.58;5.40;;;;;;;11.67;100.00;100250.19;3576885;79;99179;-87
2021/12/31 11:34:38;;;;;;;10.50;5.40;;;;;;;11.72;100.00;100259.47;3592134;80;99322;-91
2021/12/31 11:39:41;;;;;;;8.93;5.30;;;;;;;11.73;100.00;100245.10;3582856;79;99353;-92
2021/12/31 11:45:04;;;;;;;10.35;5.30;;;;;;;11.72;100.00;100242.92;3591357;79;34838;-92
2021/12/31 11:50:29;;;;;;;9.48;5.10;;;;;;;11.72;100.00;100229.14;3566844;81;99230;-91
2021/12/31 11:55:44;;;;;;;8.08;4.90;;;;;;;11.71;100.00;100232.28;3594508;79;98954;-92
2021/12/31 12:00:45;;;;;;;11.23;6.33;;;;;;;11.69;100.00;100233.27;3582708;79;99139;-93
2021/12/31 12:05:46;;;;;;;9.73;4.90;;;;;;;11.69;100.00;100220.86;3584308;80;99588;-93
2021/12/31 12:10:47;;;;;;;9.50;5.13;;;;;;;11.69;100.00;100214.77;3587600;81;99083;-94
2021/12/31 12:15:49;;;;;;;10.37;4.57;;;;;;;11.74;100.00;100201.19;3584624;80;98999;-90
2021/12/31 12:20:51;;;;;;;9.57;4.63;;;;;;;11.75;100.00;100202.76;3586986;80;99052;-90
2021/12/31 12:25:52;;;;;;;9.33;4.53;;;;;;;11.78;100.00;100202.77;3585810;81;98857;-90
2021/12/31 12:31:03;;;;;;;9.33;3.77;;;;;;;11.79;100.00;100196.09;3582865;79;98635;-93
2021/12/31 12:35:57;;;;;;;7.80;3.55;;;;;;;11.78;100.00;100193.12;3593957;79;99053;-95
2021/12/31 12:41:09;;;;;;;10.57;4.13;;;;;;;11.82;100.00;100200.81;3588079;81;98825;-93
2021/12/31 12:46:13;;;;;;;8.93;4.25;;;;;;;11.82;100.00;100189.78;3593962;79;99180;-94
2021/12/31 12:51:31;;;;;;;9.83;4.62;;;;;;;11.85;100.00;100186.84;3547327;80;99479;-93
2021/12/31 12:56:32;;;;;;;9.43;4.40;;;;;;;11.85;100.00;100185.45;3600845;79;32003;-92
2021/12/31 13:01:38;;;;;;;10.10;4.13;;;;;;;11.88;100.00;100183.31;3585098;81;98821;-93
2021/12/31 13:06:41;;;;;;;;;;;;;;;11.88;100.00;100179.17;3584100;80;99030;-92
2021/12/31 13:11:49;;;;;;;8.68;4.05;;;;;;;11.87;100.00;100178.38;3589235;79;85073;-93
2021/12/31 13:16:52;;;;;;;9.35;4.00;;;;;;;11.88;100.00;100181.33;3589343;81;99063;-94
2021/12/31 13:21:59;;;;;;;7.83;4.15;;;;;;;11.88;100.00;100197.87;3588531;81;99121;-89
2021/12/31 13:27:05;;;;;;;11.28;4.30;;;;;;;11.89;100.00;100193.16;3587364;81;35847;-90
2021/12/31 13:32:11;;;;;;;8.23;3.62;;;;;;;11.87;100.00;100200.44;3573274;80;99406;-91
2021/12/31 13:37:39;;;;;;;8.53;3.30;;;;;;;11.84;100.00;100199.82;3582366;80;99444;-94
2021/12/31 13:42:44;;;;;;;6.42;3.08;;;;;;;11.83;100.00;100196.87;3558406;81;99257;-91
2021/12/31 13:47:45;;;;;;;8.35;3.87;;;;;;;11.81;100.00;100186.03;3564538;81;99533;-91
2021/12/31 13:52:48;;;;;;;7.73;3.40;;;;;;;11.81;100.00;100184.08;3586161;80;98960;-90
2021/12/31 13:58:06;;;;;;;11.95;5.55;;;;;;;11.86;100.00;100173.24;3589734;81;99260;-90
2021/12/31 14:03:17;;;;;;;15.03;8.23;;;;;;;11.86;100.00;100180.13;3584227;81;34772;-91
2021/12/31 14:13:43;;;;;;;17.82;7.92;;;;;;;11.79;100.00;100185.06;3578535;80;98969;-92
2021/12/31 14:18:44;;;;;;;13.58;7.47;;;;;;;11.78;100.00;100188.21;3583963;80;99501;-91
2021/12/31 14:23:46;;;;;;;15.43;8.10;;;;;;;11.77;100.00;100179.13;3585723;81;99129;-92
2021/12/31 14:28:47;;;;;;;8.45;3.85;;;;;;;11.77;100.00;100178.36;3566024;79;99255;-91
2021/12/31 14:33:48;;;;;;;9.03;4.37;;;;;;;11.74;100.00;100172.24;3586442;80;99110;-90
2021/12/31 14:38:48;;;;;;;9.13;4.13;;;;;;;11.72;100.00;100170.48;3583683;81;99031;-90
2021/12/31 14:43:58;;;;;;;9.37;4.93;;;;;;;11.69;100.00;100171.24;3594302;81;98805;-93
2021/12/31 14:48:55;;;;;;;9.98;5.15;;;;;;;11.65;100.00;100165.72;3582217;80;98846;-92
2021/12/31 14:53:56;;;;;;;10.63;4.50;;;;;;;11.64;100.00;100159.22;3586674;80;99376;-92
2021/12/31 14:59:01;;;;;;;12.67;5.70;;;;;;;11.64;100.00;100169.66;3578573;81;99377;-91
2021/12/31 15:04:05;;;;;;;12.93;5.60;;;;;;;11.62;100.00;100162.36;3575643;81;99226;-93
2021/12/31 15:09:13;;;;;;;9.30;4.20;;;;;;;11.62;100.00;100160.20;3575202;80;98999;-92
2021/12/31 15:14:10;;;;;;;9.27;3.67;;;;;;;11.62;100.00;100165.72;3582212;80;98754;-91
2021/12/31 15:19:11;;;;;;;14.37;5.23;;;;;;;11.60;100.00;100160.59;3566911;81;99046;-91
2021/12/31 15:24:12;;;;;;;9.37;5.20;;;;;;;11.61;100.00;100157.26;3579019;80;99234;-94
2021/12/31 15:29:13;;;;;;;9.50;3.97;;;;;;;11.62;100.00;100153.31;3581011;80;99036;-92
2021/12/31 15:34:14;;;;;;;9.20;3.63;;;;;;;11.62;100.00;100147.20;3581546;81;99731;-89
2021/12/31 15:39:15;;;;;;;10.83;3.87;;;;;;;11.60;100.00;100155.66;3584667;81;98853;-90
2021/12/31 15:44:16;;;;;;;7.80;3.57;;;;;;;11.62;100.00;100151.33;3594323;81;98831;-90
2021/12/31 15:49:17;;;;;;;6.83;3.40;;;;;;;11.62;100.00;100158.83;3569295;80;99216;-91
2021/12/31 15:54:21;;;;;;;9.57;3.20;;;;;;;11.63;100.00;100150.17;3586799;80;99575;-91
2021/12/31 15:59:21;;;;;;;7.93;4.00;;;;;;;11.67;100.00;100159.83;3573774;81;99412;-93
2021/12/31 16:04:23;;;;;;;9.83;4.67;;;;;;;11.68;100.00;100149.00;3580055;81;99353;-91
2021/12/31 16:09:23;;;;;;;9.67;4.83;;;;;;;11.67;100.00;100145.44;3572084;81;99014;-92
2021/12/31 16:14:25;;;;;;;7.60;4.10;;;;;;;11.66;100.00;100141.11;3586858;80;32529;-91
2021/12/31 16:19:26;;;;;;;12.67;6.43;;;;;;;11.67;100.00;100139.16;3570416;80;98913;-89
2021/12/31 16:24:26;;;;;;;12.63;6.37;;;;;;;11.68;100.00;100137.39;3581970;81;99248;-92
2021/12/31 16:29:47;;;;;;;13.16;5.68;;;;;;;11.67;100.00;100124.77;3577536;79;99199;-95
2021/12/31 16:34:48;;;;;;;14.45;7.05;;;;;;;11.66;100.00;100116.30;3589686;81;99269;-95
2021/12/31 16:39:49;;;;;;;15.60;7.50;;;;;;;11.65;100.00;100119.44;3581217;79;99311;-95
2021/12/31 16:44:50;;;;;;;15.00;6.90;;;;;;;11.64;100.00;100119.25;3550067;79;25896;-95
2021/12/31 16:49:51;;;;;;;12.63;7.87;;;;;;;11.62;100.00;100115.50;3578904;81;99308;-95
2021/12/31 16:54:53;;;;;;;14.97;8.53;;;;;;;11.61;100.00;100107.03;3586076;81;99429;-95
2021/12/31 16:59:53;;;;;;;15.63;7.97;;;;;;;11.61;100.00;100102.13;3575508;79;99341;-94
2021/12/31 17:05:01;;;;;;;9.90;4.67;;;;;;;11.61;100.00;100096.62;3589948;81;99351;-95
2021/12/31 17:09:59;;;;;;;9.20;4.47;;;;;;;11.58;100.00;100094.59;3585263;81;99066;-94
2021/12/31 17:15:02;;;;;;;15.30;5.30;;;;;;;11.56;100.00;100099.73;3591019;79;25858;-95
2021/12/31 17:20:04;;;;;;;19.70;8.60;;;;;;;11.57;100.00;100097.16;3580811;81;99156;-94
2021/12/31 17:25:08;;;;;;;14.00;6.67;;;;;;;11.57;100.00;100086.14;3588141;81;99052;-95
2021/12/31 17:30:10;;;;;;;15.47;6.73;;;;;;;11.58;100.00;100095.98;3583386;81;99593;-95
2021/12/31 17:35:11;;;;;;;11.50;5.00;;;;;;;11.56;100.00;100090.85;3593487;81;99376;-93
2021/12/31 17:40:13;;;;;;;10.93;4.47;;;;;;;11.54;100.00;100098.73;3586426;80;99248;-93
2021/12/31 17:45:14;;;;;;;11.10;5.40;;;;;;;11.56;100.00;100099.73;3585453;80;32694;-90
2021/12/31 17:50:15;;;;;;;12.73;4.70;;;;;;;11.57;100.00;100097.16;3574054;81;99293;-92
2021/12/31 17:55:17;;;;;;;11.27;5.10;;;;;;;11.60;100.00;100097.20;3587155;80;99082;-93
2021/12/31 18:00:19;;;;;;;13.35;4.90;;;;;;;11.64;100.00;100105.47;3575463;81;99351;-91
2021/12/31 18:05:21;;;;;;;10.00;4.20;;;;;;;11.65;100.00;100099.56;3589458;80;99184;-94
2021/12/31 18:10:22;;;;;;;12.77;4.90;;;;;;;11.66;100.00;100101.14;3580006;80;99130;-92
2021/12/31 18:15:23;;;;;;;12.20;4.77;;;;;;;11.66;100.00;100110.02;3581281;80;98455;-94
2021/12/31 18:20:24;;;;;;;9.60;4.30;;;;;;;11.65;100.00;100113.92;3584826;81;99040;-94
2021/12/31 18:25:26;;;;;;;15.47;4.83;;;;;;;11.63;100.00;100123.19;3589994;80;98834;-95
2021/12/31 18:30:27;;;;;;;10.60;3.77;;;;;;;11.59;100.00;100127.89;3586811;81;99544;-96
2021/12/31 18:35:28;;;;;;;12.13;4.20;;;;;;;11.55;100.00;100133.98;3590805;81;99254;-96
2021/12/31 18:40:29;;;;;;;10.10;3.53;;;;;;;11.52;100.00;100138.30;3585237;81;99144;-96
2021/12/31 18:45:30;;;;;;;9.90;3.93;;;;;;;11.48;100.00;100149.10;3579447;80;99166;-96
2021/12/31 18:50:43;;;;;;;10.57;4.50;;;;;;;11.43;100.00;100143.39;3585545;79;98725;-94
2021/12/31 18:55:41;;;;;;;11.10;4.10;;;;;;;11.40;100.00;100143.38;3584421;80;98923;-95
2021/12/31 19:00:42;;;;;;;10.23;4.50;;;;;;;11.35;100.00;100147.89;3519562;81;99209;-95
2021/12/31 19:05:45;;;;;;;10.20;4.77;;;;;;;11.32;100.00;100153.59;3562804;80;98976;-96
2021/12/31 19:10:48;;;;;;;8.10;3.50;;;;;;;11.27;100.00;100155.34;3591254;79;99694;-94
2021/12/31 19:15:49;;;;;;;8.38;3.98;;;;;;;11.25;100.00;100169.30;3565231;80;99421;-92
2021/12/31 19:20:55;;;;;;;9.33;4.10;;;;;;;11.23;100.00;100164.77;3562783;81;98852;-92
2021/12/31 19:26:09;;;;;;;11.68;4.47;;;;;;;11.22;100.00;100163.17;3588342;79;98825;-94
2021/12/31 19:31:30;;;;;;;7.05;3.47;;;;;;;11.21;100.00;100154.14;3573175;81;98122;-94
2021/12/31 19:36:24;;;;;;;9.05;3.83;;;;;;;11.20;100.00;100161.41;3508601;80;98669;-93
2021/12/31 19:41:25;;;;;;;9.43;3.33;;;;;;;11.20;100.00;100154.52;3541646;81;99056;-92
2021/12/31 19:46:33;;;;;;;7.47;3.50;;;;;;;11.21;100.00;100164.35;3588121;79;99456;-94
2021/12/31 19:51:34;;;;;;;6.78;3.37;;;;;;;11.19;100.00;100164.77;3574740;81;98595;-93
2021/12/31 19:56:37;;;;;;;12.60;4.50;;;;;;;11.19;100.00;100168.89;3578732;81;99328;-94
2021/12/31 20:01:41;;;;;;;8.18;4.17;;;;;;;11.20;100.00;100166.91;3586144;80;99282;-93
2021/12/31 20:06:42;;;;;;;9.63;3.75;;;;;;;11.19;100.00;100176.36;3597942;81;99822;-94
2021/12/31 20:11:44;;;;;;;9.53;4.40;;;;;;;11.17;100.00;100182.85;3582390;81;99065;-93
2021/12/31 20:16:45;;;;;;;7.67;3.98;;;;;;;11.18;100.00;100176.16;3561371;81;99021;-95
2021/12/31 20:21:46;;;;;;;9.07;3.73;;;;;;;11.19;100.00;100183.24;3580155;79;98360;-93
2021/12/31 20:26:47;;;;;;;9.13;3.80;;;;;;;11.19;100.00;100185.42;3593591;81;98836;-95
2021/12/31 20:31:48;;;;;;;9.30;4.80;;;;;;;11.19;100.00;100178.53;3555728;79;99004;-92
2021/12/31 20:36:48;;;;;;;12.37;6.23;;;;;;;11.21;100.00;100187.19;3586374;79;99025;-93
2021/12/31 20:41:49;;;;;;;9.70;5.03;;;;;;;11.23;100.00;100193.70;3551196;81;99480;-92
2021/12/31 20:46:54;;;;;;;10.30;4.20;;;;;;;11.22;100.00;100190.14;3588459;81;99445;-93
2021/12/31 20:51:54;;;;;;;7.83;3.50;;;;;;;11.23;100.00;100188.19;3591423;80;98591;-91
2021/12/31 20:56:56;;;;;;;9.43;4.23;;;;;;;11.21;100.00;100187.19;3598343;81;99253;-96
2021/12/31 21:01:57;;;;;;;10.53;4.43;;;;;;;11.24;100.00;100189.77;3570705;81;99018;-94
2021/12/31 21:06:58;;;;;;;7.13;3.20;;;;;;;11.23;100.00;100190.34;3588119;80;99393;-93
2021/12/31 21:11:59;;;;;;;9.10;4.10;;;;;;;11.25;100.00;100196.84;3582261;79;99033;-93
2021/12/31 21:17:00;;;;;;;11.60;4.40;;;;;;;11.25;100.00;100208.66;3588550;79;99113;-90
2021/12/31 21:22:04;;;;;;;17.50;9.50;;;;;;;11.24;100.00;100206.28;3577676;81;98657;-91
2021/12/31 21:27:04;;;;;;;12.13;6.08;;;;;;;11.23;100.00;100213.75;3582877;79;99189;-91
2021/12/31 21:32:06;;;;;;;10.37;4.73;;;;;;;11.21;100.00;100231.84;3584548;80;98623;-90
2021/12/31 21:37:07;;;;;;;9.30;4.30;;;;;;;11.22;100.00;100236.17;3584880;81;99604;-91
2021/12/31 21:42:07;;;;;;;11.10;5.90;;;;;;;11.22;100.00;100233.41;3574215;81;99466;-91
2021/12/31 21:47:08;;;;;;;10.50;5.40;;;;;;;11.19;100.00;100246.02;3593177;81;99293;-91
2021/12/31 21:52:10;;;;;;;12.47;5.90;;;;;;;11.18;100.00;100245.79;3583547;80;98705;-92
2021/12/31 21:57:11;;;;;;;7.47;3.87;;;;;;;11.18;100.00;100250.53;3581903;80;98979;-90
2021/12/31 22:02:14;;;;;;;9.53;4.40;;;;;;;11.18;100.00;100258.80;3578123;81;99001;-92
2021/12/31 22:07:15;;;;;;;9.03;4.60;;;;;;;11.18;100.00;100258.19;3581180;81;98981;-91
2021/12/31 22:12:16;;;;;;;11.03;5.27;;;;;;;11.19;100.00;100261.17;3581894;80;99067;-92
2021/12/31 22:17:18;;;;;;;9.97;5.13;;;;;;;11.20;100.00;100264.70;3585364;80;99674;-90
2021/12/31 22:22:19;;;;;;;9.97;5.27;;;;;;;11.20;100.00;100257.23;3575930;80;98762;-91
2021/12/31 22:27:20;;;;;;;9.00;4.87;;;;;;;11.22;100.00;100270.60;3583921;81;98789;-93
2021/12/31 22:32:21;;;;;;;10.37;5.17;;;;;;;11.20;100.00;100267.45;3562932;81;98958;-92
2021/12/31 22:37:22;;;;;;;10.93;5.47;;;;;;;11.08;100.00;100252.62;3590193;79;99618;-91
2021/12/31 22:42:23;;;;;;;9.57;4.83;;;;;;;11.18;100.00;100275.32;3588131;79;99301;-93
2021/12/31 22:47:24;;;;;;;9.80;4.33;;;;;;;11.18;100.00;100272.56;3595068;81;99495;-90
2021/12/31 22:52:25;;;;;;;9.20;4.70;;;;;;;11.18;100.00;100276.09;3580362;79;98603;-90
2021/12/31 22:57:26;;;;;;;12.33;6.70;;;;;;;11.19;100.00;100278.27;3545677;81;98675;-92
2021/12/31 23:02:27;;;;;;;18.47;12.00;;;;;;;11.19;100.00;100294.22;3588518;81;99067;-91
2021/12/31 23:07:28;;;;;;;85.50;60.60;;;;;;;11.17;100.00;100297.93;3581189;81;99376;-91
2021/12/31 23:12:29;;;;;;;51.70;36.37;;;;;;;11.15;100.00;100305.00;3541061;81;99412;-90